createdAt,value
2023-02-11T00:00:49.412Z,-3.88
2023-02-11T00:01:49.036Z,-3.93
2023-02-11T00:02:49.007Z,-3.96
2023-02-11T00:03:49.837Z,-3.99
2023-02-11T00:04:48.953Z,-4.03
2023-02-11T00:05:49.326Z,-4.11
2023-02-11T00:06:48.922Z,-4.14
2023-02-11T00:07:48.913Z,-4.17
2023-02-11T00:08:48.916Z,-4.18
2023-02-11T00:09:49.635Z,-4.20
2023-02-11T00:10:49.220Z,-4.14
2023-02-11T00:11:48.881Z,-4.00
2023-02-11T00:12:48.902Z,-3.85
2023-02-11T00:13:48.856Z,-3.78
2023-02-11T00:14:48.855Z,-3.78
2023-02-11T00:15:49.263Z,-3.82
2023-02-11T00:16:48.874Z,-3.88
2023-02-11T00:17:48.819Z,-3.94
2023-02-11T00:18:48.839Z,-4.01
2023-02-11T00:19:48.794Z,-4.10
2023-02-11T00:20:48.839Z,-4.12
2023-02-11T00:21:48.776Z,-4.18
2023-02-11T00:22:48.798Z,-4.21
2023-02-11T00:23:48.768Z,-4.28
2023-02-11T00:24:48.771Z,-4.33
2023-02-11T00:25:49.058Z,-4.38
2023-02-11T00:26:48.762Z,-4.39
2023-02-11T00:27:48.736Z,-4.36
2023-02-11T00:28:48.740Z,-4.35
2023-02-11T00:29:48.697Z,-4.35
2023-02-11T00:30:48.773Z,-4.33
2023-02-11T00:31:48.856Z,-4.33
2023-02-11T00:32:48.664Z,-4.32
2023-02-11T00:33:48.659Z,-4.35
2023-02-11T00:34:48.656Z,-4.33
2023-02-11T00:35:49.071Z,-4.32
2023-02-11T00:36:48.634Z,-4.32
2023-02-11T00:37:48.634Z,-4.29
2023-02-11T00:38:48.621Z,-4.24
2023-02-11T00:39:48.613Z,-4.15
2023-02-11T00:40:48.613Z,-4.07
2023-02-11T00:41:48.620Z,-4.06
2023-02-11T00:42:48.564Z,-3.99
2023-02-11T00:43:48.573Z,-3.96
2023-02-11T00:44:48.562Z,-3.94
2023-02-11T00:45:48.895Z,-3.97
2023-02-11T00:46:48.522Z,-3.99
2023-02-11T00:47:48.514Z,-4.00
2023-02-11T00:48:48.514Z,-4.01
2023-02-11T00:49:48.921Z,-3.99
2023-02-11T00:50:49.474Z,-4.00
2023-02-11T00:51:48.488Z,-4.03
2023-02-11T00:52:48.547Z,-4.06
2023-02-11T00:53:48.892Z,-4.10
2023-02-11T00:54:48.457Z,-4.15
2023-02-11T00:55:48.826Z,-4.20
2023-02-11T00:56:48.432Z,-4.21
2023-02-11T00:57:48.429Z,-4.22
2023-02-11T00:58:48.477Z,-4.25
2023-02-11T00:59:48.396Z,-4.28
2023-02-11T01:00:48.383Z,-4.30
2023-02-11T01:01:48.456Z,-4.36
2023-02-11T01:02:48.405Z,-4.39
2023-02-11T01:03:48.445Z,-4.42
2023-02-11T01:04:48.436Z,-4.47
2023-02-11T01:05:48.799Z,-4.50
2023-02-11T01:06:48.342Z,-4.51
2023-02-11T01:07:48.361Z,-4.53
2023-02-11T01:08:48.316Z,-4.47
2023-02-11T01:09:48.295Z,-4.47
2023-02-11T01:10:48.302Z,-4.50
2023-02-11T01:11:48.289Z,-4.53
2023-02-11T01:12:48.276Z,-4.54
2023-02-11T01:13:48.262Z,-4.57
2023-02-11T01:14:48.265Z,-4.57
2023-02-11T01:15:48.410Z,-4.58
2023-02-11T01:16:48.233Z,-4.63
2023-02-11T01:17:48.226Z,-4.67
2023-02-11T01:18:48.231Z,-4.71
2023-02-11T01:19:48.242Z,-4.75
2023-02-11T01:20:48.211Z,-4.75
2023-02-11T01:21:48.380Z,-4.68
2023-02-11T01:22:48.177Z,-4.67
2023-02-11T01:23:48.186Z,-4.65
2023-02-11T01:24:48.176Z,-4.67
2023-02-11T01:25:49.304Z,-4.63
2023-02-11T01:26:48.161Z,-4.65
2023-02-11T01:27:48.159Z,-4.67
2023-02-11T01:28:48.135Z,-4.68
2023-02-11T01:29:48.356Z,-4.69
2023-02-11T01:30:48.575Z,-4.71
2023-02-11T01:31:48.135Z,-4.69
2023-02-11T01:32:48.087Z,-4.69
2023-02-11T01:33:48.058Z,-4.65
2023-02-11T01:34:48.062Z,-4.54
2023-02-11T01:35:48.390Z,-4.38
2023-02-11T01:36:48.045Z,-4.35
2023-02-11T01:37:48.065Z,-4.35
2023-02-11T01:38:48.266Z,-4.36
2023-02-11T01:39:48.004Z,-4.42
2023-02-11T01:40:47.995Z,-4.46
2023-02-11T01:41:47.984Z,-4.50
2023-02-11T01:42:50.913Z,-4.51
2023-02-11T01:43:47.977Z,-4.56
2023-02-11T01:44:47.968Z,-4.57
2023-02-11T01:45:48.439Z,-4.56
2023-02-11T01:46:48.154Z,-4.61
2023-02-11T01:47:48.558Z,-4.58
2023-02-11T01:48:47.993Z,-4.57
2023-02-11T01:49:47.913Z,-4.54
2023-02-11T01:50:47.897Z,-4.53
2023-02-11T01:51:48.126Z,-4.51
2023-02-11T01:52:47.917Z,-4.50
2023-02-11T01:53:47.870Z,-4.53
2023-02-11T01:54:47.873Z,-4.50
2023-02-11T01:55:48.365Z,-4.47
2023-02-11T01:56:47.990Z,-4.47
2023-02-11T01:57:47.833Z,-4.49
2023-02-11T01:58:47.827Z,-4.49
2023-02-11T01:59:47.830Z,-4.50
2023-02-11T02:00:47.965Z,-4.51
2023-02-11T02:01:47.870Z,-4.54
2023-02-11T02:02:47.787Z,-4.53
2023-02-11T02:03:47.832Z,-4.49
2023-02-11T02:04:47.767Z,-4.46
2023-02-11T02:05:48.230Z,-4.42
2023-02-11T02:06:47.758Z,-4.40
2023-02-11T02:07:47.751Z,-4.38
2023-02-11T02:08:47.728Z,-4.39
2023-02-11T02:09:47.708Z,-4.40
2023-02-11T02:10:47.708Z,-4.46
2023-02-11T02:11:47.688Z,-4.49
2023-02-11T02:12:47.685Z,-4.50
2023-02-11T02:13:47.678Z,-4.53
2023-02-11T02:14:47.668Z,-4.50
2023-02-11T02:15:47.931Z,-4.49
2023-02-11T02:16:47.656Z,-4.42
2023-02-11T02:17:47.627Z,-4.36
2023-02-11T02:18:47.636Z,-4.30
2023-02-11T02:19:47.606Z,-4.30
2023-02-11T02:20:47.622Z,-4.32
2023-02-11T02:21:47.586Z,-4.32
2023-02-11T02:22:47.627Z,-4.29
2023-02-11T02:23:47.561Z,-4.33
2023-02-11T02:24:47.567Z,-4.36
2023-02-11T02:25:47.769Z,-4.40
2023-02-11T02:26:47.545Z,-4.43
2023-02-11T02:27:47.530Z,-4.40
2023-02-11T02:28:47.529Z,-4.36
2023-02-11T02:29:47.515Z,-4.35
2023-02-11T02:30:47.566Z,-4.38
2023-02-11T02:31:47.585Z,-4.42
2023-02-11T02:32:47.485Z,-4.49
2023-02-11T02:33:47.465Z,-4.53
2023-02-11T02:34:47.466Z,-4.53
2023-02-11T02:35:47.718Z,-4.49
2023-02-11T02:36:47.446Z,-4.43
2023-02-11T02:37:47.423Z,-4.42
2023-02-11T02:38:47.426Z,-4.40
2023-02-11T02:39:47.406Z,-4.40
2023-02-11T02:40:47.410Z,-4.40
2023-02-11T02:41:47.397Z,-4.43
2023-02-11T02:42:47.386Z,-4.47
2023-02-11T02:43:47.377Z,-4.50
2023-02-11T02:44:47.358Z,-4.54
2023-02-11T02:45:47.493Z,-4.58
2023-02-11T02:46:47.574Z,-4.61
2023-02-11T02:47:47.336Z,-4.67
2023-02-11T02:48:47.316Z,-4.67
2023-02-11T02:49:47.327Z,-4.67
2023-02-11T02:50:47.302Z,-4.71
2023-02-11T02:51:47.300Z,-4.67
2023-02-11T02:52:47.351Z,-4.68
2023-02-11T02:53:47.291Z,-4.74
2023-02-11T02:54:47.294Z,-4.75
2023-02-11T02:55:47.284Z,-4.79
2023-02-11T02:56:47.237Z,-4.83
2023-02-11T02:57:47.242Z,-4.87
2023-02-11T02:58:47.490Z,-4.92
2023-02-11T02:59:47.213Z,-4.92
2023-02-11T03:00:47.230Z,-4.93
2023-02-11T03:01:47.209Z,-4.92
2023-02-11T03:02:47.182Z,-4.93
2023-02-11T03:03:47.213Z,-4.93
2023-02-11T03:04:47.165Z,-4.97
2023-02-11T03:05:47.165Z,-4.95
2023-02-11T03:06:47.135Z,-4.86
2023-02-11T03:07:47.147Z,-4.79
2023-02-11T03:08:47.121Z,-4.74
2023-02-11T03:09:47.164Z,-4.74
2023-02-11T03:10:47.126Z,-4.75
2023-02-11T03:11:47.111Z,-4.75
2023-02-11T03:12:47.111Z,-4.72
2023-02-11T03:13:47.095Z,-4.71
2023-02-11T03:14:47.881Z,-4.69
2023-02-11T03:15:47.147Z,-4.69
2023-02-11T03:16:47.053Z,-4.65
2023-02-11T03:17:47.132Z,-4.56
2023-02-11T03:18:47.115Z,-4.53
2023-02-11T03:19:47.034Z,-4.53
2023-02-11T03:20:47.008Z,-4.56
2023-02-11T03:21:47.005Z,-4.54
2023-02-11T03:22:46.995Z,-4.54
2023-02-11T03:23:46.998Z,-4.53
2023-02-11T03:24:47.027Z,-4.50
2023-02-11T03:25:46.983Z,-4.50
2023-02-11T03:26:46.968Z,-4.43
2023-02-11T03:27:46.947Z,-4.40
2023-02-11T03:28:46.936Z,-4.29
2023-02-11T03:29:46.927Z,-4.18
2023-02-11T03:30:47.078Z,-4.00
2023-02-11T03:31:46.915Z,-3.94
2023-02-11T03:32:46.903Z,-3.94
2023-02-11T03:33:46.888Z,-3.96
2023-02-11T03:34:46.867Z,-4.00
2023-02-11T03:35:46.864Z,-4.03
2023-02-11T03:36:47.031Z,-4.03
2023-02-11T03:37:46.898Z,-4.07
2023-02-11T03:38:46.837Z,-4.12
2023-02-11T03:39:46.818Z,-4.11
2023-02-11T03:40:46.819Z,-4.14
2023-02-11T03:41:46.809Z,-4.15
2023-02-11T03:42:46.800Z,-4.14
2023-02-11T03:43:46.837Z,-4.12
2023-02-11T03:44:46.779Z,-4.07
2023-02-11T03:45:46.796Z,-4.04
2023-02-11T03:46:46.753Z,-4.04
2023-02-11T03:47:46.739Z,-4.03
2023-02-11T03:48:46.740Z,-4.03
2023-02-11T03:49:46.729Z,-4.07
2023-02-11T03:50:46.722Z,-4.07
2023-02-11T03:51:46.703Z,-4.14
2023-02-11T03:52:46.708Z,-4.20
2023-02-11T03:53:46.772Z,-4.25
2023-02-11T03:54:46.682Z,-4.29
2023-02-11T03:55:46.670Z,-4.33
2023-02-11T03:56:46.648Z,-4.33
2023-02-11T03:57:46.682Z,-4.38
2023-02-11T03:58:46.634Z,-4.40
2023-02-11T03:59:46.648Z,-4.43
2023-02-11T04:00:46.662Z,-4.49
2023-02-11T04:01:46.632Z,-4.42
2023-02-11T04:02:46.624Z,-4.46
2023-02-11T04:03:46.589Z,-4.49
2023-02-11T04:04:46.570Z,-4.56
2023-02-11T04:05:46.581Z,-4.60
2023-02-11T04:06:46.554Z,-4.61
2023-02-11T04:07:46.551Z,-4.63
2023-02-11T04:08:46.544Z,-4.57
2023-02-11T04:09:46.558Z,-4.54
2023-02-11T04:10:46.511Z,-4.47
2023-02-11T04:11:46.511Z,-4.40
2023-02-11T04:12:46.490Z,-4.35
2023-02-11T04:13:46.492Z,-4.38
2023-02-11T04:14:46.501Z,-4.46
2023-02-11T04:15:48.813Z,-4.50
2023-02-11T04:16:46.502Z,-4.57
2023-02-11T04:17:46.448Z,-4.60
2023-02-11T04:18:46.462Z,-4.69
2023-02-11T04:19:46.433Z,-4.74
2023-02-11T04:20:46.421Z,-4.78
2023-02-11T04:21:46.409Z,-4.79
2023-02-11T04:22:46.407Z,-4.79
2023-02-11T04:23:46.400Z,-4.83
2023-02-11T04:24:46.374Z,-4.81
2023-02-11T04:25:46.374Z,-4.85
2023-02-11T04:26:46.354Z,-4.87
2023-02-11T04:27:46.364Z,-4.89
2023-02-11T04:28:46.350Z,-4.90
2023-02-11T04:29:46.337Z,-4.93
2023-02-11T04:30:46.360Z,-4.97
2023-02-11T04:31:46.355Z,-4.95
2023-02-11T04:32:46.306Z,-4.96
2023-02-11T04:33:46.311Z,-4.96
2023-02-11T04:34:46.287Z,-4.96
2023-02-11T04:35:46.290Z,-4.95
2023-02-11T04:36:46.266Z,-4.92
2023-02-11T04:37:46.256Z,-4.92
2023-02-11T04:38:46.256Z,-4.93
2023-02-11T04:39:46.277Z,-4.92
2023-02-11T04:40:46.224Z,-4.90
2023-02-11T04:41:46.996Z,-4.92
2023-02-11T04:42:46.198Z,-4.92
2023-02-11T04:43:46.196Z,-4.95
2023-02-11T04:44:46.177Z,-4.92
2023-02-11T04:45:47.029Z,-4.89
2023-02-11T04:46:46.460Z,-4.85
2023-02-11T04:47:46.191Z,-4.83
2023-02-11T04:48:46.160Z,-4.81
2023-02-11T04:49:46.260Z,-4.83
2023-02-11T04:50:46.995Z,-4.86
2023-02-11T04:51:49.224Z,-4.74
2023-02-11T04:52:46.107Z,-4.65
2023-02-11T04:53:46.899Z,-4.54
2023-02-11T04:54:46.083Z,-4.47
2023-02-11T04:55:46.097Z,-4.43
2023-02-11T04:56:46.071Z,-4.47
2023-02-11T04:57:46.060Z,-4.42
2023-02-11T04:58:46.039Z,-4.39
2023-02-11T04:59:46.042Z,-4.38
2023-02-11T05:00:46.828Z,-4.38
2023-02-11T05:01:46.033Z,-4.38
2023-02-11T05:02:46.005Z,-4.42
2023-02-11T05:03:46.043Z,-4.39
2023-02-11T05:04:46.021Z,-4.40
2023-02-11T05:05:45.981Z,-4.46
2023-02-11T05:06:45.959Z,-4.46
2023-02-11T05:07:46.229Z,-4.50
2023-02-11T05:08:46.342Z,-4.53
2023-02-11T05:09:45.943Z,-4.56
2023-02-11T05:10:45.919Z,-4.60
2023-02-11T05:11:45.963Z,-4.63
2023-02-11T05:12:45.899Z,-4.63
2023-02-11T05:13:45.916Z,-4.63
2023-02-11T05:14:45.901Z,-4.67
2023-02-11T05:15:45.889Z,-4.69
2023-02-11T05:16:45.991Z,-4.75
2023-02-11T05:17:45.852Z,-4.77
2023-02-11T05:18:45.839Z,-4.79
2023-02-11T05:19:45.830Z,-4.79
2023-02-11T05:20:45.822Z,-4.83
2023-02-11T05:22:01.415Z,-4.81
2023-02-11T05:22:46.809Z,-4.77
2023-02-11T05:23:45.808Z,-4.77
2023-02-11T05:24:45.783Z,-4.78
2023-02-11T05:25:45.776Z,-4.75
2023-02-11T05:26:45.772Z,-4.75
2023-02-11T05:27:45.763Z,-4.75
2023-02-11T05:28:45.752Z,-4.72
2023-02-11T05:29:45.735Z,-4.69
2023-02-11T05:30:45.813Z,-4.69
2023-02-11T05:31:45.730Z,-4.74
2023-02-11T05:32:45.712Z,-4.78
2023-02-11T05:33:45.703Z,-4.85
2023-02-11T05:34:45.684Z,-4.89
2023-02-11T05:35:45.680Z,-4.93
2023-02-11T05:36:45.668Z,-4.93
2023-02-11T05:37:45.663Z,-4.99
2023-02-11T05:38:45.816Z,-5.00
2023-02-11T05:39:45.634Z,-5.03
2023-02-11T05:40:45.623Z,-5.07
2023-02-11T05:41:45.632Z,-5.04
2023-02-11T05:42:45.601Z,-5.06
2023-02-11T05:43:45.619Z,-5.07
2023-02-11T05:44:45.590Z,-5.08
2023-02-11T05:45:45.580Z,-5.08
2023-02-11T05:46:45.678Z,-5.10
2023-02-11T05:47:45.574Z,-5.13
2023-02-11T05:48:45.576Z,-5.14
2023-02-11T05:49:46.343Z,-5.13
2023-02-11T05:50:45.526Z,-5.11
2023-02-11T05:51:45.533Z,-5.10
2023-02-11T05:54:56.383Z,-5.00
2023-02-11T05:55:56.410Z,-5.00
2023-02-11T05:56:56.380Z,-4.97
2023-02-11T05:57:56.919Z,-5.00
2023-02-11T05:58:56.354Z,-5.06
2023-02-11T05:59:56.342Z,-5.10
2023-02-11T06:00:56.326Z,-5.17
2023-02-11T06:01:57.127Z,-5.19
2023-02-11T06:02:56.354Z,-5.19
2023-02-11T06:03:56.336Z,-5.19
2023-02-11T06:04:56.295Z,-5.18
2023-02-11T06:05:56.286Z,-5.18
2023-02-11T06:06:56.262Z,-5.11
2023-02-11T06:07:56.276Z,-5.04
2023-02-11T06:08:56.246Z,-5.00
2023-02-11T06:09:56.492Z,-4.99
2023-02-11T06:10:56.230Z,-4.96
2023-02-11T06:11:56.225Z,-4.93
2023-02-11T06:12:56.207Z,-4.95
2023-02-11T06:13:56.214Z,-4.90
2023-02-11T06:14:56.196Z,-4.92
2023-02-11T06:15:56.201Z,-4.90
2023-02-11T06:16:56.156Z,-4.86
2023-02-11T06:17:56.335Z,-4.83
2023-02-11T06:18:56.967Z,-4.81
2023-02-11T06:19:56.177Z,-4.77
2023-02-11T06:20:56.131Z,-4.69
2023-02-11T06:21:56.132Z,-4.68
2023-02-11T06:22:56.098Z,-4.68
2023-02-11T06:23:56.109Z,-4.71
2023-02-11T06:25:01.615Z,-4.74
2023-02-11T06:25:57.088Z,-4.72
2023-02-11T06:26:56.068Z,-4.72
2023-02-11T06:27:56.082Z,-4.72
2023-02-11T06:28:56.058Z,-4.67
2023-02-11T06:29:56.048Z,-4.65
2023-02-11T06:30:56.143Z,-4.63
2023-02-11T06:31:56.272Z,-4.56
2023-02-11T06:32:56.127Z,-4.54
2023-02-11T06:33:56.007Z,-4.53
2023-02-11T06:34:56.845Z,-4.53
2023-02-11T06:35:55.988Z,-4.53
2023-02-11T06:36:55.979Z,-4.56
2023-02-11T06:37:55.960Z,-4.58
2023-02-11T06:38:55.961Z,-4.63
2023-02-11T06:39:55.993Z,-4.67
2023-02-11T06:40:55.934Z,-4.63
2023-02-11T06:41:55.931Z,-4.63
2023-02-11T06:42:56.691Z,-4.61
2023-02-11T06:43:55.901Z,-4.61
2023-02-11T06:44:55.911Z,-4.65
2023-02-11T06:45:55.900Z,-4.68
2023-02-11T06:46:55.987Z,-4.72
2023-02-11T06:47:55.862Z,-4.69
2023-02-11T06:48:55.897Z,-4.69
2023-02-11T06:49:55.852Z,-4.61
2023-02-11T06:50:56.642Z,-4.49
2023-02-11T06:51:55.852Z,-4.46
2023-02-11T06:52:55.874Z,-4.46
2023-02-11T06:53:55.802Z,-4.42
2023-02-11T06:54:55.827Z,-4.40
2023-02-11T06:55:55.828Z,-4.42
2023-02-11T06:56:55.844Z,-4.49
2023-02-11T06:57:55.759Z,-4.49
2023-02-11T06:58:55.785Z,-4.51
2023-02-11T06:59:55.745Z,-4.49
2023-02-11T07:00:55.740Z,-4.38
2023-02-11T07:01:55.817Z,-4.12
2023-02-11T07:02:55.776Z,-4.00
2023-02-11T07:03:55.706Z,-3.99
2023-02-11T07:04:55.713Z,-4.00
2023-02-11T07:05:55.710Z,-3.99
2023-02-11T07:06:55.700Z,-3.97
2023-02-11T07:07:55.665Z,-3.94
2023-02-11T07:08:55.678Z,-3.97
2023-02-11T07:09:55.683Z,-4.00
2023-02-11T07:10:55.673Z,-3.99
2023-02-11T07:11:55.636Z,-3.99
2023-02-11T07:12:58.459Z,-3.93
2023-02-11T07:13:55.609Z,-3.93
2023-02-11T07:14:55.614Z,-3.90
2023-02-11T07:15:55.740Z,-3.85
2023-02-11T07:16:55.636Z,-3.79
2023-02-11T07:17:55.735Z,-3.75
2023-02-11T07:18:55.577Z,-3.71
2023-02-11T07:19:55.552Z,-3.71
2023-02-11T07:20:55.550Z,-3.75
2023-02-11T07:21:55.536Z,-3.76
2023-02-11T07:22:55.632Z,-3.72
2023-02-11T07:23:55.510Z,-3.72
2023-02-11T07:24:55.527Z,-3.71
2023-02-11T07:25:55.486Z,-3.69
2023-02-11T07:26:55.492Z,-3.69
2023-02-11T07:27:55.499Z,-3.66
2023-02-11T07:28:55.464Z,-3.67
2023-02-11T07:29:55.493Z,-3.60
2023-02-11T07:30:55.485Z,-3.53
2023-02-11T07:31:55.499Z,-3.45
2023-02-11T07:32:55.427Z,-3.36
2023-02-11T07:33:55.411Z,-3.28
2023-02-11T07:34:55.460Z,-3.23
2023-02-11T07:35:55.378Z,-3.17
2023-02-11T07:36:55.417Z,-3.10
2023-02-11T07:37:55.406Z,-3.03
2023-02-11T07:38:55.607Z,-3.03
2023-02-11T07:39:55.422Z,-2.99
2023-02-11T07:40:56.103Z,-2.99
2023-02-11T07:41:55.336Z,-2.97
2023-02-11T07:42:55.337Z,-2.91
2023-02-11T07:43:55.366Z,-2.85
2023-02-11T07:44:55.331Z,-2.81
2023-02-11T07:45:55.311Z,-2.71
2023-02-11T07:46:55.453Z,-2.60
2023-02-11T07:47:55.258Z,-2.53
2023-02-11T07:48:55.267Z,-2.46
2023-02-11T07:49:56.658Z,-2.35
2023-02-11T07:50:55.387Z,-2.27
2023-02-11T07:51:55.226Z,-2.24
2023-02-11T07:52:55.242Z,-2.15
2023-02-11T07:53:55.246Z,-2.12
2023-02-11T07:54:56.021Z,-2.05
2023-02-11T07:55:55.940Z,-2.03
2023-02-11T07:56:55.179Z,-1.98
2023-02-11T07:57:55.159Z,-1.94
2023-02-11T07:58:55.958Z,-1.87
2023-02-11T07:59:55.148Z,-1.87
2023-02-11T08:00:55.270Z,-1.82
2023-02-11T08:01:56.666Z,-1.77
2023-02-11T08:02:55.110Z,-1.69
2023-02-11T08:03:55.122Z,-1.64
2023-02-11T08:04:55.109Z,-1.59
2023-02-11T08:05:55.084Z,-1.51
2023-02-11T08:06:57.801Z,-1.45
2023-02-11T08:07:55.300Z,-1.37
2023-02-11T08:08:55.060Z,-1.31
2023-02-11T08:09:55.056Z,-1.22
2023-02-11T08:10:55.043Z,-1.15
2023-02-11T08:11:55.044Z,-1.07
2023-02-11T08:12:55.833Z,-0.97
2023-02-11T08:13:55.068Z,-0.89
2023-02-11T08:14:55.000Z,-0.85
2023-02-11T08:15:54.970Z,-0.79
2023-02-11T08:16:55.126Z,-0.76
2023-02-11T08:17:54.957Z,-0.67
2023-02-11T08:18:54.950Z,-0.58
2023-02-11T08:19:54.939Z,-0.44
2023-02-11T08:20:54.929Z,-0.37
2023-02-11T08:21:54.922Z,-0.33
2023-02-11T08:22:54.919Z,-0.26
2023-02-11T08:23:54.908Z,-0.18
2023-02-11T08:24:54.895Z,-0.08
2023-02-11T08:25:54.899Z,0.03
2023-02-11T08:26:54.891Z,0.14
2023-02-11T08:27:55.073Z,0.24
2023-02-11T08:28:54.867Z,0.35
2023-02-11T08:29:54.898Z,0.42
2023-02-11T08:30:54.880Z,0.42
2023-02-11T08:31:54.838Z,0.35
2023-02-11T08:32:54.809Z,0.42
2023-02-11T08:33:54.793Z,0.55
2023-02-11T08:34:54.806Z,0.65
2023-02-11T08:35:54.773Z,0.72
2023-02-11T08:36:54.935Z,0.73
2023-02-11T08:37:54.748Z,0.75
2023-02-11T08:38:58.696Z,0.73
2023-02-11T08:39:55.740Z,0.86
2023-02-11T08:40:54.732Z,0.98
2023-02-11T08:41:54.731Z,1.12
2023-02-11T08:42:54.716Z,1.22
2023-02-11T08:43:54.680Z,1.27
2023-02-11T08:44:54.691Z,1.30
2023-02-11T08:45:54.696Z,1.41
2023-02-11T08:46:54.661Z,1.51
2023-02-11T08:47:54.649Z,1.60
2023-02-11T08:48:54.642Z,1.69
2023-02-11T08:49:54.624Z,1.79
2023-02-11T08:50:54.624Z,1.79
2023-02-11T08:51:54.609Z,1.87
2023-02-11T08:52:54.605Z,1.99
2023-02-11T08:53:54.591Z,2.10
2023-02-11T08:54:54.572Z,2.09
2023-02-11T08:55:54.554Z,2.21
2023-02-11T08:56:54.864Z,2.35
2023-02-11T08:57:54.548Z,2.52
2023-02-11T08:58:54.543Z,2.66
2023-02-11T08:59:54.524Z,2.82
2023-02-11T09:00:54.765Z,2.93
2023-02-11T09:01:54.515Z,3.10
2023-02-11T09:02:54.499Z,3.10
2023-02-11T09:03:54.482Z,3.15
2023-02-11T09:04:54.477Z,3.20
2023-02-11T09:05:54.459Z,3.26
2023-02-11T09:06:54.457Z,3.23
2023-02-11T09:07:54.516Z,3.31
2023-02-11T09:08:54.436Z,3.36
2023-02-11T09:09:54.416Z,3.40
2023-02-11T09:10:54.417Z,3.43
2023-02-11T09:11:54.397Z,3.33
2023-02-11T09:12:54.403Z,3.35
2023-02-11T09:13:54.777Z,3.31
2023-02-11T09:14:54.367Z,3.05
2023-02-11T09:15:54.358Z,2.96
2023-02-11T09:16:54.427Z,2.92
2023-02-11T09:17:54.329Z,2.85
2023-02-11T09:18:54.338Z,3.02
2023-02-11T09:19:54.308Z,3.42
2023-02-11T09:20:54.313Z,3.55
2023-02-11T09:21:54.312Z,3.50
2023-02-11T09:22:54.279Z,3.55
2023-02-11T09:23:54.302Z,3.69
2023-02-11T09:24:54.287Z,3.57
2023-02-11T09:25:54.264Z,3.52
2023-02-11T09:26:54.248Z,3.52
2023-02-11T09:27:54.247Z,3.65
2023-02-11T09:28:54.237Z,3.94
2023-02-11T09:29:54.232Z,4.09
2023-02-11T09:30:54.719Z,3.66
2023-02-11T09:31:54.332Z,3.68
2023-02-11T09:32:54.183Z,4.00
2023-02-11T09:33:54.163Z,4.40
2023-02-11T09:34:54.997Z,4.82
2023-02-11T09:35:54.142Z,4.97
2023-02-11T09:36:54.168Z,5.03
2023-02-11T09:37:54.132Z,4.73
2023-02-11T09:38:54.133Z,4.37
2023-02-11T09:39:54.111Z,4.34
2023-02-11T09:40:54.104Z,4.24
2023-02-11T09:41:54.082Z,4.33
2023-02-11T09:42:54.077Z,4.32
2023-02-11T09:43:54.140Z,4.22
2023-02-11T09:44:54.049Z,4.29
2023-02-11T09:45:54.056Z,4.45
2023-02-11T09:46:54.041Z,4.50
2023-02-11T09:47:54.125Z,4.51
2023-02-11T09:48:54.015Z,4.36
2023-02-11T09:49:53.987Z,4.34
2023-02-11T09:50:53.989Z,4.23
2023-02-11T09:51:53.987Z,4.22
2023-02-11T09:52:53.977Z,4.26
2023-02-11T09:53:53.948Z,4.30
2023-02-11T09:54:53.964Z,4.22
2023-02-11T09:55:53.928Z,4.02
2023-02-11T09:56:53.948Z,3.76
2023-02-11T09:57:53.932Z,3.76
2023-02-11T09:58:53.921Z,3.76
2023-02-11T09:59:53.885Z,3.86
2023-02-11T10:00:53.894Z,3.86
2023-02-11T10:01:53.903Z,3.69
2023-02-11T10:02:53.863Z,3.80
2023-02-11T10:03:53.915Z,4.04
2023-02-11T10:04:53.845Z,4.24
2023-02-11T10:05:53.824Z,4.34
2023-02-11T10:06:53.822Z,4.40
2023-02-11T10:07:53.822Z,4.47
2023-02-11T10:08:54.631Z,4.52
2023-02-11T10:09:54.080Z,4.52
2023-02-11T10:10:54.053Z,4.69
2023-02-11T10:11:53.772Z,4.92
2023-02-11T10:12:53.768Z,5.28
2023-02-11T10:13:53.758Z,5.61
2023-02-11T10:14:53.747Z,5.72
2023-02-11T10:15:53.734Z,5.49
2023-02-11T10:16:53.718Z,5.13
2023-02-11T10:17:54.522Z,5.51
2023-02-11T10:18:53.709Z,5.83
2023-02-11T10:19:53.681Z,6.21
2023-02-11T10:20:53.781Z,6.49
2023-02-11T10:21:53.659Z,6.12
2023-02-11T10:22:53.650Z,5.90
2023-02-11T10:23:53.631Z,5.97
2023-02-11T10:24:53.650Z,6.12
2023-02-11T10:25:53.620Z,6.30
2023-02-11T10:26:54.150Z,6.62
2023-02-11T10:27:53.598Z,6.81
2023-02-11T10:28:53.593Z,6.89
2023-02-11T10:29:53.582Z,6.84
2023-02-11T10:30:54.452Z,6.58
2023-02-11T10:31:54.935Z,6.49
2023-02-11T10:32:53.554Z,6.58
2023-02-11T10:33:53.527Z,6.66
2023-02-11T10:34:53.527Z,6.69
2023-02-11T10:35:53.730Z,6.74
2023-02-11T10:36:53.494Z,6.76
2023-02-11T10:37:53.530Z,6.77
2023-02-11T10:38:53.485Z,6.48
2023-02-11T10:39:53.474Z,6.51
2023-02-11T10:40:53.587Z,6.62
2023-02-11T10:41:53.451Z,6.52
2023-02-11T10:42:55.553Z,6.34
2023-02-11T10:43:53.426Z,5.97
2023-02-11T10:44:53.418Z,5.75
2023-02-11T10:45:54.218Z,5.45
2023-02-11T10:46:53.385Z,5.46
2023-02-11T10:47:53.385Z,5.43
2023-02-11T10:48:53.361Z,5.49
2023-02-11T10:49:53.363Z,5.42
2023-02-11T10:50:53.367Z,5.45
2023-02-11T10:51:53.354Z,5.33
2023-02-11T10:52:53.326Z,5.07
2023-02-11T10:53:53.326Z,4.88
2023-02-11T10:54:53.307Z,4.78
2023-02-11T10:55:53.292Z,4.84
2023-02-11T10:56:53.279Z,4.91
2023-02-11T10:57:53.268Z,4.92
2023-02-11T10:58:53.248Z,4.99
2023-02-11T10:59:53.258Z,5.02
2023-02-11T11:00:53.684Z,5.17
2023-02-11T11:01:53.285Z,5.27
2023-02-11T11:02:53.225Z,5.30
2023-02-11T11:03:53.213Z,5.25
2023-02-11T11:04:53.249Z,5.20
2023-02-11T11:05:53.214Z,5.27
2023-02-11T11:06:53.183Z,5.31
2023-02-11T11:07:53.185Z,5.38
2023-02-11T11:08:53.161Z,5.33
2023-02-11T11:09:53.162Z,5.27
2023-02-11T11:10:53.432Z,5.36
2023-02-11T11:11:53.133Z,5.39
2023-02-11T11:12:53.139Z,5.42
2023-02-11T11:13:53.127Z,5.53
2023-02-11T11:14:53.092Z,5.58
2023-02-11T11:15:53.122Z,5.40
2023-02-11T11:16:53.068Z,5.35
2023-02-11T11:17:53.483Z,5.33
2023-02-11T11:18:53.057Z,5.31
2023-02-11T11:19:53.053Z,5.45
2023-02-11T11:20:53.113Z,5.46
2023-02-11T11:21:53.024Z,5.54
2023-02-11T11:22:53.014Z,5.51
2023-02-11T11:23:53.003Z,5.42
2023-02-11T11:24:53.008Z,5.42
2023-02-11T11:25:52.985Z,5.42
2023-02-11T11:26:52.972Z,5.60
2023-02-11T11:27:52.976Z,5.91
2023-02-11T11:28:52.953Z,6.17
2023-02-11T11:29:53.016Z,6.25
2023-02-11T11:30:53.408Z,6.74
2023-02-11T11:31:53.041Z,6.88
2023-02-11T11:32:52.896Z,6.99
2023-02-11T11:33:52.900Z,7.17
2023-02-11T11:34:52.882Z,7.61
2023-02-11T11:35:52.974Z,7.92
2023-02-11T11:36:52.867Z,8.59
2023-02-11T11:37:52.856Z,9.28
2023-02-11T11:38:52.836Z,9.93
2023-02-11T11:39:52.844Z,10.45
2023-02-11T11:40:52.815Z,10.79
2023-02-11T11:41:52.827Z,11.09
2023-02-11T11:42:52.808Z,11.36
2023-02-11T11:43:52.793Z,11.67
2023-02-11T11:44:52.771Z,11.27
2023-02-11T11:45:52.766Z,11.42
2023-02-11T11:46:52.789Z,10.99
2023-02-11T11:47:52.749Z,11.09
2023-02-11T11:48:52.725Z,11.07
2023-02-11T11:49:52.727Z,11.24
2023-02-11T11:50:52.991Z,11.32
2023-02-11T11:51:52.711Z,10.53
2023-02-11T11:52:52.691Z,9.99
2023-02-11T11:53:52.684Z,9.35
2023-02-11T11:54:52.647Z,9.29
2023-02-11T11:55:52.664Z,9.48
2023-02-11T11:56:52.628Z,9.13
2023-02-11T11:57:52.634Z,8.59
2023-02-11T11:58:52.626Z,8.28
2023-02-11T11:59:52.618Z,8.01
2023-02-11T12:00:52.997Z,8.34
2023-02-11T12:01:52.658Z,8.29
2023-02-11T12:02:52.625Z,8.33
2023-02-11T12:03:52.574Z,8.44
2023-02-11T12:04:52.542Z,8.52
2023-02-11T12:05:52.551Z,8.47
2023-02-11T12:06:52.521Z,8.63
2023-02-11T12:07:52.527Z,9.04
2023-02-11T12:08:52.524Z,9.51
2023-02-11T12:09:52.501Z,9.47
2023-02-11T12:10:52.889Z,9.24
2023-02-11T12:11:52.489Z,9.29
2023-02-11T12:12:52.462Z,9.24
2023-02-11T12:13:52.454Z,9.35
2023-02-11T12:14:52.455Z,9.64
2023-02-11T12:15:52.435Z,9.48
2023-02-11T12:16:52.506Z,8.95
2023-02-11T12:17:52.429Z,8.79
2023-02-11T12:18:52.397Z,9.14
2023-02-11T12:19:52.399Z,9.48
2023-02-11T12:20:52.785Z,9.57
2023-02-11T12:21:52.378Z,9.78
2023-02-11T12:22:52.347Z,10.22
2023-02-11T12:23:52.347Z,10.56
2023-02-11T12:24:52.327Z,10.88
2023-02-11T12:25:52.356Z,10.92
2023-02-11T12:26:52.304Z,11.09
2023-02-11T12:27:52.307Z,11.18
2023-02-11T12:28:52.293Z,11.09
2023-02-11T12:29:52.689Z,10.89
2023-02-11T12:30:52.724Z,10.94
2023-02-11T12:31:52.308Z,11.10
2023-02-11T12:32:52.248Z,11.21
2023-02-11T12:33:52.247Z,11.15
2023-02-11T12:34:52.225Z,11.32
2023-02-11T12:35:52.223Z,10.99
2023-02-11T12:36:52.239Z,10.99
2023-02-11T12:37:52.198Z,11.25
2023-02-11T12:38:52.197Z,11.27
2023-02-11T12:39:52.193Z,11.25
2023-02-11T12:40:52.486Z,10.91
2023-02-11T12:41:52.258Z,10.79
2023-02-11T12:42:52.137Z,10.86
2023-02-11T12:43:52.137Z,10.76
2023-02-11T12:44:52.117Z,10.89
2023-02-11T12:45:52.181Z,11.19
2023-02-11T12:46:52.119Z,11.46
2023-02-11T12:47:52.099Z,11.44
2023-02-11T12:48:52.096Z,11.75
2023-02-11T12:49:52.084Z,11.88
2023-02-11T12:50:52.274Z,11.76
2023-02-11T12:51:52.059Z,11.80
2023-02-11T12:52:52.039Z,11.83
2023-02-11T12:53:52.040Z,11.72
2023-02-11T12:54:52.004Z,11.46
2023-02-11T12:55:52.012Z,11.33
2023-02-11T12:56:52.019Z,10.85
2023-02-11T12:57:52.003Z,10.76
2023-02-11T12:58:51.966Z,10.85
2023-02-11T12:59:52.773Z,11.06
2023-02-11T13:00:52.301Z,11.28
2023-02-11T13:01:52.637Z,11.04